sensor_id;sensor_type;location;lat;lon;timestamp;temperature;humidity
36594;DHT22;22603;47.900;8.146;2023-03-23T00:00:32;7.30;99.90
36594;DHT22;22603;47.900;8.146;2023-03-23T00:03:20;7.30;99.90
36594;DHT22;22603;47.900;8.146;2023-03-23T00:06:12;7.30;99.90
36594;DHT22;22603;47.900;8.146;2023-03-23T00:09:01;7.30;99.90
36594;DHT22;22603;47.900;8.146;2023-03-23T00:11:48;7.30;99.90
36594;DHT22;22603;47.900;8.146;2023-03-23T00:14:35;7.30;99.90
36594;DHT22;22603;47.900;8.146;2023-03-23T00:17:28;7.30;99.90
36594;DHT22;22603;47.900;8.146;2023-03-23T00:20:14;7.20;99.90
36594;DHT22;22603;47.900;8.146;2023-03-23T00:23:02;7.20;99.90
36594;DHT22;22603;47.900;8.146;2023-03-23T00:25:49;7.10;99.90
36594;DHT22;22603;47.900;8.146;2023-03-23T00:28:38;7.10;99.90
36594;DHT22;22603;47.900;8.146;2023-03-23T00:31:24;7.10;99.90
36594;DHT22;22603;47.900;8.146;2023-03-23T00:34:17;7.30;99.90
36594;DHT22;22603;47.900;8.146;2023-03-23T00:37:03;7.60;99.90
36594;DHT22;22603;47.900;8.146;2023-03-23T00:39:51;7.40;99.90
36594;DHT22;22603;47.900;8.146;2023-03-23T00:42:41;7.50;99.90
36594;DHT22;22603;47.900;8.146;2023-03-23T00:45:28;7.80;99.90
36594;DHT22;22603;47.900;8.146;2023-03-23T00:48:14;8.30;99.90
36594;DHT22;22603;47.900;8.146;2023-03-23T00:50:59;8.60;99.90
36594;DHT22;22603;47.900;8.146;2023-03-23T00:53:46;8.80;99.90
36594;DHT22;22603;47.900;8.146;2023-03-23T00:56:34;9.10;99.90
36594;DHT22;22603;47.900;8.146;2023-03-23T00:59:20;9.60;99.90
36594;DHT22;22603;47.900;8.146;2023-03-23T01:02:07;9.90;99.90
36594;DHT22;22603;47.900;8.146;2023-03-23T01:04:53;10.20;99.90
36594;DHT22;22603;47.900;8.146;2023-03-23T01:07:39;10.30;99.90
36594;DHT22;22603;47.900;8.146;2023-03-23T01:10:24;10.50;99.90
36594;DHT22;22603;47.900;8.146;2023-03-23T01:13:19;10.60;99.90
36594;DHT22;22603;47.900;8.146;2023-03-23T01:16:07;10.80;99.90
36594;DHT22;22603;47.900;8.146;2023-03-23T01:18:54;10.80;99.90
36594;DHT22;22603;47.900;8.146;2023-03-23T01:21:40;10.90;99.90
36594;DHT22;22603;47.900;8.146;2023-03-23T01:24:26;11.00;99.90
36594;DHT22;22603;47.900;8.146;2023-03-23T01:27:17;10.90;99.90
36594;DHT22;22603;47.900;8.146;2023-03-23T01:30:07;11.00;99.90
36594;DHT22;22603;47.900;8.146;2023-03-23T01:32:54;11.00;99.90
36594;DHT22;22603;47.900;8.146;2023-03-23T01:35:40;10.90;99.90
36594;DHT22;22603;47.900;8.146;2023-03-23T01:38:26;11.00;99.90
36594;DHT22;22603;47.900;8.146;2023-03-23T01:41:13;11.00;99.90
36594;DHT22;22603;47.900;8.146;2023-03-23T01:44:01;10.90;99.90
36594;DHT22;22603;47.900;8.146;2023-03-23T01:46:49;10.90;99.90
36594;DHT22;22603;47.900;8.146;2023-03-23T01:49:37;10.90;99.90
36594;DHT22;22603;47.900;8.146;2023-03-23T01:52:27;10.80;99.90
36594;DHT22;22603;47.900;8.146;2023-03-23T01:55:13;11.00;99.90
36594;DHT22;22603;47.900;8.146;2023-03-23T01:58:00;11.00;99.90
36594;DHT22;22603;47.900;8.146;2023-03-23T02:00:46;11.10;99.90
36594;DHT22;22603;47.900;8.146;2023-03-23T02:03:35;11.20;99.90
36594;DHT22;22603;47.900;8.146;2023-03-23T02:06:22;11.10;99.90
36594;DHT22;22603;47.900;8.146;2023-03-23T02:09:09;11.00;99.90
36594;DHT22;22603;47.900;8.146;2023-03-23T02:11:57;10.90;99.90
36594;DHT22;22603;47.900;8.146;2023-03-23T02:14:43;10.90;99.90
36594;DHT22;22603;47.900;8.146;2023-03-23T02:17:33;10.80;99.90
36594;DHT22;22603;47.900;8.146;2023-03-23T02:20:37;10.80;99.90
36594;DHT22;22603;47.900;8.146;2023-03-23T02:23:45;11.00;99.90
36594;DHT22;22603;47.900;8.146;2023-03-23T02:26:47;11.00;99.90
36594;DHT22;22603;47.900;8.146;2023-03-23T02:29:53;11.10;99.90
36594;DHT22;22603;47.900;8.146;2023-03-23T02:36:12;11.00;99.90
36594;DHT22;22603;47.900;8.146;2023-03-23T02:39:03;10.90;99.90
36594;DHT22;22603;47.900;8.146;2023-03-23T02:41:55;10.90;99.90
36594;DHT22;22603;47.900;8.146;2023-03-23T02:44:44;11.10;99.90
36594;DHT22;22603;47.900;8.146;2023-03-23T02:47:31;11.10;99.90
36594;DHT22;22603;47.900;8.146;2023-03-23T02:50:20;11.20;99.90
36594;DHT22;22603;47.900;8.146;2023-03-23T02:53:10;11.20;99.90
36594;DHT22;22603;47.900;8.146;2023-03-23T02:55:58;11.00;99.90
36594;DHT22;22603;47.900;8.146;2023-03-23T02:58:46;10.80;99.90
36594;DHT22;22603;47.900;8.146;2023-03-23T03:01:57;10.80;99.90
36594;DHT22;22603;47.900;8.146;2023-03-23T03:04:50;10.90;99.90
36594;DHT22;22603;47.900;8.146;2023-03-23T03:07:48;11.00;99.90
36594;DHT22;22603;47.900;8.146;2023-03-23T03:10:43;11.00;99.90
36594;DHT22;22603;47.900;8.146;2023-03-23T03:13:38;10.90;99.90
36594;DHT22;22603;47.900;8.146;2023-03-23T03:16:30;10.80;99.90
36594;DHT22;22603;47.900;8.146;2023-03-23T03:19:22;10.70;99.90
36594;DHT22;22603;47.900;8.146;2023-03-23T03:22:11;10.60;99.90
36594;DHT22;22603;47.900;8.146;2023-03-23T03:24:58;10.60;99.90
36594;DHT22;22603;47.900;8.146;2023-03-23T03:27:47;10.50;99.90
36594;DHT22;22603;47.900;8.146;2023-03-23T03:30:37;10.40;99.90
36594;DHT22;22603;47.900;8.146;2023-03-23T03:33:24;10.30;99.90
36594;DHT22;22603;47.900;8.146;2023-03-23T03:36:16;10.60;99.90
36594;DHT22;22603;47.900;8.146;2023-03-23T03:39:04;10.40;99.90
36594;DHT22;22603;47.900;8.146;2023-03-23T03:41:55;10.30;99.90
36594;DHT22;22603;47.900;8.146;2023-03-23T03:44:43;10.30;99.90
36594;DHT22;22603;47.900;8.146;2023-03-23T03:47:29;10.30;99.90
36594;DHT22;22603;47.900;8.146;2023-03-23T03:50:14;10.20;99.90
36594;DHT22;22603;47.900;8.146;2023-03-23T03:53:01;10.10;99.90
36594;DHT22;22603;47.900;8.146;2023-03-23T03:55:47;10.00;99.90
36594;DHT22;22603;47.900;8.146;2023-03-23T03:58:34;9.90;99.90
36594;DHT22;22603;47.900;8.146;2023-03-23T04:01:22;9.90;99.90
36594;DHT22;22603;47.900;8.146;2023-03-23T04:04:08;9.90;99.90
36594;DHT22;22603;47.900;8.146;2023-03-23T04:06:54;9.80;99.90
36594;DHT22;22603;47.900;8.146;2023-03-23T04:09:42;9.90;99.90
36594;DHT22;22603;47.900;8.146;2023-03-23T04:12:30;9.90;99.90
36594;DHT22;22603;47.900;8.146;2023-03-23T04:15:19;9.90;99.90
36594;DHT22;22603;47.900;8.146;2023-03-23T04:18:07;9.80;99.90
36594;DHT22;22603;47.900;8.146;2023-03-23T04:20:52;9.80;99.90
36594;DHT22;22603;47.900;8.146;2023-03-23T04:23:43;9.80;99.90
36594;DHT22;22603;47.900;8.146;2023-03-23T04:26:30;9.60;99.90
36594;DHT22;22603;47.900;8.146;2023-03-23T04:29:17;9.60;99.90
36594;DHT22;22603;47.900;8.146;2023-03-23T04:32:03;9.50;99.90
36594;DHT22;22603;47.900;8.146;2023-03-23T04:34:51;9.50;99.90
36594;DHT22;22603;47.900;8.146;2023-03-23T04:37:37;9.40;99.90
36594;DHT22;22603;47.900;8.146;2023-03-23T04:40:24;9.40;99.90
36594;DHT22;22603;47.900;8.146;2023-03-23T04:43:09;9.60;99.90
36594;DHT22;22603;47.900;8.146;2023-03-23T04:45:58;9.70;99.90
36594;DHT22;22603;47.900;8.146;2023-03-23T04:48:54;9.70;99.90
36594;DHT22;22603;47.900;8.146;2023-03-23T04:51:44;9.70;99.90
36594;DHT22;22603;47.900;8.146;2023-03-23T04:54:30;9.70;99.90
36594;DHT22;22603;47.900;8.146;2023-03-23T04:57:16;9.80;99.90
36594;DHT22;22603;47.900;8.146;2023-03-23T05:00:03;9.90;99.90
36594;DHT22;22603;47.900;8.146;2023-03-23T05:02:53;10.00;99.90
36594;DHT22;22603;47.900;8.146;2023-03-23T05:05:40;10.30;99.90
36594;DHT22;22603;47.900;8.146;2023-03-23T05:08:27;10.40;99.90
36594;DHT22;22603;47.900;8.146;2023-03-23T05:11:14;10.60;99.90
36594;DHT22;22603;47.900;8.146;2023-03-23T05:14:00;10.50;99.90
36594;DHT22;22603;47.900;8.146;2023-03-23T05:16:49;10.50;99.90
36594;DHT22;22603;47.900;8.146;2023-03-23T05:19:36;10.60;99.90
36594;DHT22;22603;47.900;8.146;2023-03-23T05:22:23;10.60;99.90
36594;DHT22;22603;47.900;8.146;2023-03-23T05:25:10;10.80;99.90
36594;DHT22;22603;47.900;8.146;2023-03-23T05:27:56;10.90;99.90
36594;DHT22;22603;47.900;8.146;2023-03-23T05:30:46;11.10;99.90
36594;DHT22;22603;47.900;8.146;2023-03-23T05:33:32;11.10;99.90
36594;DHT22;22603;47.900;8.146;2023-03-23T05:36:18;11.10;99.90
36594;DHT22;22603;47.900;8.146;2023-03-23T05:39:04;11.20;99.90
36594;DHT22;22603;47.900;8.146;2023-03-23T05:41:51;11.20;99.90
36594;DHT22;22603;47.900;8.146;2023-03-23T05:44:37;11.30;99.90
36594;DHT22;22603;47.900;8.146;2023-03-23T05:47:22;11.40;99.90
36594;DHT22;22603;47.900;8.146;2023-03-23T05:50:09;11.30;99.90
36594;DHT22;22603;47.900;8.146;2023-03-23T05:52:55;11.30;99.90
36594;DHT22;22603;47.900;8.146;2023-03-23T05:55:41;11.40;99.90
36594;DHT22;22603;47.900;8.146;2023-03-23T05:58:29;11.30;99.90
36594;DHT22;22603;47.900;8.146;2023-03-23T06:01:15;11.30;99.90
36594;DHT22;22603;47.900;8.146;2023-03-23T06:04:02;11.40;99.90
36594;DHT22;22603;47.900;8.146;2023-03-23T06:06:50;11.50;99.90
36594;DHT22;22603;47.900;8.146;2023-03-23T06:09:36;11.60;99.90
36594;DHT22;22603;47.900;8.146;2023-03-23T06:12:22;11.60;99.90
36594;DHT22;22603;47.900;8.146;2023-03-23T06:15:10;11.70;99.90
36594;DHT22;22603;47.900;8.146;2023-03-23T06:17:58;11.70;99.90
36594;DHT22;22603;47.900;8.146;2023-03-23T06:20:46;11.70;99.90
36594;DHT22;22603;47.900;8.146;2023-03-23T06:23:32;11.80;99.90
36594;DHT22;22603;47.900;8.146;2023-03-23T06:26:20;11.90;99.90
36594;DHT22;22603;47.900;8.146;2023-03-23T06:29:12;12.00;99.90
36594;DHT22;22603;47.900;8.146;2023-03-23T06:32:01;12.00;99.90
36594;DHT22;22603;47.900;8.146;2023-03-23T06:34:47;12.00;99.90
36594;DHT22;22603;47.900;8.146;2023-03-23T06:37:33;12.00;99.90
36594;DHT22;22603;47.900;8.146;2023-03-23T06:40:19;12.00;99.90
36594;DHT22;22603;47.900;8.146;2023-03-23T06:43:06;12.00;99.90
36594;DHT22;22603;47.900;8.146;2023-03-23T06:45:52;12.00;99.90
36594;DHT22;22603;47.900;8.146;2023-03-23T06:48:40;12.00;99.90
36594;DHT22;22603;47.900;8.146;2023-03-23T06:51:26;11.90;99.90
36594;DHT22;22603;47.900;8.146;2023-03-23T06:54:12;11.80;99.90
36594;DHT22;22603;47.900;8.146;2023-03-23T06:56:59;11.90;99.90
36594;DHT22;22603;47.900;8.146;2023-03-23T06:59:45;11.90;99.90
36594;DHT22;22603;47.900;8.146;2023-03-23T07:02:31;11.90;99.90
36594;DHT22;22603;47.900;8.146;2023-03-23T07:05:21;12.00;99.90
36594;DHT22;22603;47.900;8.146;2023-03-23T07:08:08;12.00;99.90
36594;DHT22;22603;47.900;8.146;2023-03-23T07:10:54;12.00;99.90
36594;DHT22;22603;47.900;8.146;2023-03-23T07:13:40;12.10;99.90
36594;DHT22;22603;47.900;8.146;2023-03-23T07:16:26;12.00;99.90
36594;DHT22;22603;47.900;8.146;2023-03-23T07:19:12;12.10;99.90
36594;DHT22;22603;47.900;8.146;2023-03-23T07:21:59;12.10;99.90
36594;DHT22;22603;47.900;8.146;2023-03-23T07:24:45;12.10;99.90
36594;DHT22;22603;47.900;8.146;2023-03-23T07:27:34;12.00;99.90
36594;DHT22;22603;47.900;8.146;2023-03-23T07:30:20;12.00;99.90
36594;DHT22;22603;47.900;8.146;2023-03-23T07:33:07;11.90;99.90
36594;DHT22;22603;47.900;8.146;2023-03-23T07:35:55;11.90;99.90
36594;DHT22;22603;47.900;8.146;2023-03-23T07:38:45;12.00;99.90
36594;DHT22;22603;47.900;8.146;2023-03-23T07:41:32;12.00;99.90
36594;DHT22;22603;47.900;8.146;2023-03-23T07:44:18;12.00;99.90
36594;DHT22;22603;47.900;8.146;2023-03-23T07:47:04;12.00;99.90
36594;DHT22;22603;47.900;8.146;2023-03-23T07:49:50;12.00;99.90
36594;DHT22;22603;47.900;8.146;2023-03-23T07:52:36;12.10;99.90
36594;DHT22;22603;47.900;8.146;2023-03-23T07:55:24;12.30;99.90
36594;DHT22;22603;47.900;8.146;2023-03-23T07:58:11;12.50;99.90
36594;DHT22;22603;47.900;8.146;2023-03-23T08:01:03;12.60;99.90
36594;DHT22;22603;47.900;8.146;2023-03-23T08:03:48;12.70;99.90
36594;DHT22;22603;47.900;8.146;2023-03-23T08:06:35;12.90;99.90
36594;DHT22;22603;47.900;8.146;2023-03-23T08:09:21;13.20;99.90
36594;DHT22;22603;47.900;8.146;2023-03-23T08:12:08;13.30;99.90
36594;DHT22;22603;47.900;8.146;2023-03-23T08:14:54;13.20;99.90
36594;DHT22;22603;47.900;8.146;2023-03-23T08:17:41;13.10;99.90
36594;DHT22;22603;47.900;8.146;2023-03-23T08:20:27;13.10;99.90
36594;DHT22;22603;47.900;8.146;2023-03-23T08:23:14;13.00;99.90
36594;DHT22;22603;47.900;8.146;2023-03-23T08:26:00;12.90;99.90
36594;DHT22;22603;47.900;8.146;2023-03-23T08:28:47;12.90;99.90
36594;DHT22;22603;47.900;8.146;2023-03-23T08:31:34;12.90;99.90
36594;DHT22;22603;47.900;8.146;2023-03-23T08:34:21;12.80;99.90
36594;DHT22;22603;47.900;8.146;2023-03-23T08:37:08;13.00;99.90
36594;DHT22;22603;47.900;8.146;2023-03-23T08:39:55;12.70;99.90
36594;DHT22;22603;47.900;8.146;2023-03-23T08:42:43;12.80;99.90
36594;DHT22;22603;47.900;8.146;2023-03-23T08:45:31;13.00;99.90
36594;DHT22;22603;47.900;8.146;2023-03-23T08:48:17;13.30;99.90
36594;DHT22;22603;47.900;8.146;2023-03-23T08:51:03;13.60;99.90
36594;DHT22;22603;47.900;8.146;2023-03-23T08:53:49;13.60;99.90
36594;DHT22;22603;47.900;8.146;2023-03-23T08:56:36;13.60;99.90
36594;DHT22;22603;47.900;8.146;2023-03-23T08:59:22;13.80;99.90
36594;DHT22;22603;47.900;8.146;2023-03-23T09:02:12;13.70;99.90
36594;DHT22;22603;47.900;8.146;2023-03-23T09:04:57;13.40;99.90
36594;DHT22;22603;47.900;8.146;2023-03-23T09:07:45;13.20;99.90
36594;DHT22;22603;47.900;8.146;2023-03-23T09:10:31;13.20;99.90
36594;DHT22;22603;47.900;8.146;2023-03-23T09:13:18;13.00;99.90
36594;DHT22;22603;47.900;8.146;2023-03-23T09:16:04;13.10;99.90
36594;DHT22;22603;47.900;8.146;2023-03-23T09:18:52;12.70;99.90
36594;DHT22;22603;47.900;8.146;2023-03-23T09:21:38;12.80;99.90
36594;DHT22;22603;47.900;8.146;2023-03-23T09:24:25;12.90;99.90
36594;DHT22;22603;47.900;8.146;2023-03-23T09:27:11;12.60;99.90
36594;DHT22;22603;47.900;8.146;2023-03-23T09:29:57;12.40;99.90
36594;DHT22;22603;47.900;8.146;2023-03-23T09:32:46;12.30;99.90
36594;DHT22;22603;47.900;8.146;2023-03-23T09:35:35;12.20;99.90
36594;DHT22;22603;47.900;8.146;2023-03-23T09:38:21;12.30;99.90
36594;DHT22;22603;47.900;8.146;2023-03-23T09:41:15;12.30;99.90
36594;DHT22;22603;47.900;8.146;2023-03-23T09:44:08;12.20;99.90
36594;DHT22;22603;47.900;8.146;2023-03-23T09:47:04;12.30;99.90
36594;DHT22;22603;47.900;8.146;2023-03-23T09:49:56;12.30;99.90
36594;DHT22;22603;47.900;8.146;2023-03-23T09:52:47;11.90;99.90
36594;DHT22;22603;47.900;8.146;2023-03-23T09:55:36;12.00;99.90
36594;DHT22;22603;47.900;8.146;2023-03-23T09:58:29;12.10;99.90
36594;DHT22;22603;47.900;8.146;2023-03-23T10:01:21;12.30;99.90
36594;DHT22;22603;47.900;8.146;2023-03-23T10:04:13;12.30;99.90
36594;DHT22;22603;47.900;8.146;2023-03-23T10:07:09;12.50;99.90
36594;DHT22;22603;47.900;8.146;2023-03-23T10:09:59;12.60;99.90
36594;DHT22;22603;47.900;8.146;2023-03-23T10:12:52;12.70;99.90
36594;DHT22;22603;47.900;8.146;2023-03-23T10:15:41;12.70;99.90
36594;DHT22;22603;47.900;8.146;2023-03-23T10:18:33;12.50;99.90
36594;DHT22;22603;47.900;8.146;2023-03-23T10:21:22;12.60;99.90
36594;DHT22;22603;47.900;8.146;2023-03-23T10:24:10;12.80;99.90
36594;DHT22;22603;47.900;8.146;2023-03-23T10:27:06;12.70;99.90
36594;DHT22;22603;47.900;8.146;2023-03-23T10:29:58;12.70;99.90
36594;DHT22;22603;47.900;8.146;2023-03-23T10:32:51;12.80;99.90
36594;DHT22;22603;47.900;8.146;2023-03-23T10:35:41;12.80;99.90
36594;DHT22;22603;47.900;8.146;2023-03-23T10:38:33;12.70;99.90
36594;DHT22;22603;47.900;8.146;2023-03-23T10:41:20;12.90;99.90
36594;DHT22;22603;47.900;8.146;2023-03-23T10:44:18;13.20;99.90
36594;DHT22;22603;47.900;8.146;2023-03-23T10:47:07;13.40;99.90
36594;DHT22;22603;47.900;8.146;2023-03-23T10:49:56;13.80;99.90
36594;DHT22;22603;47.900;8.146;2023-03-23T10:52:43;14.30;99.90
36594;DHT22;22603;47.900;8.146;2023-03-23T10:55:38;14.10;99.90
36594;DHT22;22603;47.900;8.146;2023-03-23T10:58:26;14.60;99.90
36594;DHT22;22603;47.900;8.146;2023-03-23T11:01:18;15.00;99.90
36594;DHT22;22603;47.900;8.146;2023-03-23T11:04:12;14.90;99.90
36594;DHT22;22603;47.900;8.146;2023-03-23T11:07:00;14.80;99.90
36594;DHT22;22603;47.900;8.146;2023-03-23T11:09:53;15.10;99.90
36594;DHT22;22603;47.900;8.146;2023-03-23T11:12:44;15.20;99.90
36594;DHT22;22603;47.900;8.146;2023-03-23T11:15:34;15.20;99.90
36594;DHT22;22603;47.900;8.146;2023-03-23T11:18:23;15.20;99.90
36594;DHT22;22603;47.900;8.146;2023-03-23T11:21:12;15.70;99.90
36594;DHT22;22603;47.900;8.146;2023-03-23T11:23:59;15.60;99.90
36594;DHT22;22603;47.900;8.146;2023-03-23T11:26:48;14.60;99.90
36594;DHT22;22603;47.900;8.146;2023-03-23T11:29:47;14.40;99.90
36594;DHT22;22603;47.900;8.146;2023-03-23T11:32:35;14.70;99.90
36594;DHT22;22603;47.900;8.146;2023-03-23T11:35:27;14.70;99.90
36594;DHT22;22603;47.900;8.146;2023-03-23T11:38:17;15.10;99.90
36594;DHT22;22603;47.900;8.146;2023-03-23T11:41:09;15.30;99.90
36594;DHT22;22603;47.900;8.146;2023-03-23T11:43:56;15.30;99.90
36594;DHT22;22603;47.900;8.146;2023-03-23T11:46:53;15.30;99.90
36594;DHT22;22603;47.900;8.146;2023-03-23T11:49:45;15.30;99.90
36594;DHT22;22603;47.900;8.146;2023-03-23T11:52:41;15.40;99.90
36594;DHT22;22603;47.900;8.146;2023-03-23T11:55:35;15.50;99.90
36594;DHT22;22603;47.900;8.146;2023-03-23T11:58:22;15.30;99.90
36594;DHT22;22603;47.900;8.146;2023-03-23T12:01:16;15.20;99.90
36594;DHT22;22603;47.900;8.146;2023-03-23T12:04:19;15.10;99.90
36594;DHT22;22603;47.900;8.146;2023-03-23T12:10:32;15.20;99.90
36594;DHT22;22603;47.900;8.146;2023-03-23T12:13:32;15.20;99.90
36594;DHT22;22603;47.900;8.146;2023-03-23T12:16:28;15.10;99.90
36594;DHT22;22603;47.900;8.146;2023-03-23T12:19:21;14.80;99.90
36594;DHT22;22603;47.900;8.146;2023-03-23T12:22:21;14.60;99.90
36594;DHT22;22603;47.900;8.146;2023-03-23T12:25:23;14.50;99.90
36594;DHT22;22603;47.900;8.146;2023-03-23T12:28:18;14.00;99.90
36594;DHT22;22603;47.900;8.146;2023-03-23T12:31:15;13.90;99.90
36594;DHT22;22603;47.900;8.146;2023-03-23T12:34:10;14.00;99.90
36594;DHT22;22603;47.900;8.146;2023-03-23T12:37:08;14.10;99.90
36594;DHT22;22603;47.900;8.146;2023-03-23T12:40:32;14.50;99.90
36594;DHT22;22603;47.900;8.146;2023-03-23T12:43:27;14.80;99.90
36594;DHT22;22603;47.900;8.146;2023-03-23T12:46:38;14.60;99.90
36594;DHT22;22603;47.900;8.146;2023-03-23T12:49:29;14.70;99.90
36594;DHT22;22603;47.900;8.146;2023-03-23T12:52:22;14.30;99.90
36594;DHT22;22603;47.900;8.146;2023-03-23T12:55:15;14.40;99.90
36594;DHT22;22603;47.900;8.146;2023-03-23T12:58:05;14.10;99.90
36594;DHT22;22603;47.900;8.146;2023-03-23T13:00:57;13.90;99.90
36594;DHT22;22603;47.900;8.146;2023-03-23T13:03:49;13.70;99.90
36594;DHT22;22603;47.900;8.146;2023-03-23T13:06:37;13.60;99.90
36594;DHT22;22603;47.900;8.146;2023-03-23T13:09:27;13.30;99.90
36594;DHT22;22603;47.900;8.146;2023-03-23T13:12:15;13.30;99.90
36594;DHT22;22603;47.900;8.146;2023-03-23T13:15:09;13.30;99.90
36594;DHT22;22603;47.900;8.146;2023-03-23T13:18:04;13.30;99.90
36594;DHT22;22603;47.900;8.146;2023-03-23T13:20:59;13.50;99.90
36594;DHT22;22603;47.900;8.146;2023-03-23T13:23:50;13.50;99.90
36594;DHT22;22603;47.900;8.146;2023-03-23T13:26:39;13.70;99.90
36594;DHT22;22603;47.900;8.146;2023-03-23T13:29:25;13.80;99.90
36594;DHT22;22603;47.900;8.146;2023-03-23T13:32:15;13.60;99.90
36594;DHT22;22603;47.900;8.146;2023-03-23T13:35:03;13.40;99.90
36594;DHT22;22603;47.900;8.146;2023-03-23T13:37:54;13.30;99.90
36594;DHT22;22603;47.900;8.146;2023-03-23T13:40:42;13.30;99.90
36594;DHT22;22603;47.900;8.146;2023-03-23T13:43:30;13.40;99.90
36594;DHT22;22603;47.900;8.146;2023-03-23T13:46:28;13.50;99.90
36594;DHT22;22603;47.900;8.146;2023-03-23T13:49:19;13.30;99.90
36594;DHT22;22603;47.900;8.146;2023-03-23T13:52:22;13.20;99.90
36594;DHT22;22603;47.900;8.146;2023-03-23T13:55:37;13.40;99.90
36594;DHT22;22603;47.900;8.146;2023-03-23T13:58:25;13.50;99.90
36594;DHT22;22603;47.900;8.146;2023-03-23T14:01:14;13.50;99.90
36594;DHT22;22603;47.900;8.146;2023-03-23T14:04:04;13.50;99.90
36594;DHT22;22603;47.900;8.146;2023-03-23T14:06:51;13.60;99.90
36594;DHT22;22603;47.900;8.146;2023-03-23T14:09:41;13.70;99.90
36594;DHT22;22603;47.900;8.146;2023-03-23T14:12:28;13.70;99.90
36594;DHT22;22603;47.900;8.146;2023-03-23T14:15:16;13.60;99.90
36594;DHT22;22603;47.900;8.146;2023-03-23T14:18:04;13.30;99.90
36594;DHT22;22603;47.900;8.146;2023-03-23T14:20:50;13.40;99.90
36594;DHT22;22603;47.900;8.146;2023-03-23T14:23:36;13.50;99.90
36594;DHT22;22603;47.900;8.146;2023-03-23T14:26:23;13.50;99.90
36594;DHT22;22603;47.900;8.146;2023-03-23T14:29:12;13.50;99.90
36594;DHT22;22603;47.900;8.146;2023-03-23T14:32:02;13.30;99.90
36594;DHT22;22603;47.900;8.146;2023-03-23T14:34:50;13.20;99.90
36594;DHT22;22603;47.900;8.146;2023-03-23T14:37:36;12.90;99.90
36594;DHT22;22603;47.900;8.146;2023-03-23T14:40:26;13.10;99.90
36594;DHT22;22603;47.900;8.146;2023-03-23T14:43:16;13.20;99.90
36594;DHT22;22603;47.900;8.146;2023-03-23T14:46:06;13.30;99.90
36594;DHT22;22603;47.900;8.146;2023-03-23T14:48:53;13.40;99.90
36594;DHT22;22603;47.900;8.146;2023-03-23T14:51:47;13.40;99.90
36594;DHT22;22603;47.900;8.146;2023-03-23T14:54:33;13.30;99.90
36594;DHT22;22603;47.900;8.146;2023-03-23T14:57:26;13.30;99.90
36594;DHT22;22603;47.900;8.146;2023-03-23T15:00:17;13.40;99.90
36594;DHT22;22603;47.900;8.146;2023-03-23T15:03:05;13.20;99.90
36594;DHT22;22603;47.900;8.146;2023-03-23T15:05:56;13.10;99.90
36594;DHT22;22603;47.900;8.146;2023-03-23T15:08:43;12.90;99.90
36594;DHT22;22603;47.900;8.146;2023-03-23T15:11:32;12.70;99.90
36594;DHT22;22603;47.900;8.146;2023-03-23T15:14:21;12.50;99.90
36594;DHT22;22603;47.900;8.146;2023-03-23T15:17:18;12.60;99.90
36594;DHT22;22603;47.900;8.146;2023-03-23T15:20:09;12.50;99.90
36594;DHT22;22603;47.900;8.146;2023-03-23T15:22:56;12.40;99.90
36594;DHT22;22603;47.900;8.146;2023-03-23T15:25:48;12.60;99.90
36594;DHT22;22603;47.900;8.146;2023-03-23T15:28:40;12.60;99.90
36594;DHT22;22603;47.900;8.146;2023-03-23T15:31:26;12.70;99.90
36594;DHT22;22603;47.900;8.146;2023-03-23T15:34:19;12.80;99.90
36594;DHT22;22603;47.900;8.146;2023-03-23T15:37:16;12.90;99.90
36594;DHT22;22603;47.900;8.146;2023-03-23T15:40:03;12.70;99.90
36594;DHT22;22603;47.900;8.146;2023-03-23T15:43:06;12.70;99.90
36594;DHT22;22603;47.900;8.146;2023-03-23T15:45:55;12.80;99.90
36594;DHT22;22603;47.900;8.146;2023-03-23T15:48:50;12.90;99.90
36594;DHT22;22603;47.900;8.146;2023-03-23T15:51:37;12.90;99.90
36594;DHT22;22603;47.900;8.146;2023-03-23T15:54:24;12.90;99.90
36594;DHT22;22603;47.900;8.146;2023-03-23T15:57:15;13.00;99.90
36594;DHT22;22603;47.900;8.146;2023-03-23T16:00:05;12.90;99.90
36594;DHT22;22603;47.900;8.146;2023-03-23T16:02:56;12.50;99.90
36594;DHT22;22603;47.900;8.146;2023-03-23T16:05:44;12.50;99.90
36594;DHT22;22603;47.900;8.146;2023-03-23T16:08:33;12.40;99.90
36594;DHT22;22603;47.900;8.146;2023-03-23T16:11:27;12.40;99.90
36594;DHT22;22603;47.900;8.146;2023-03-23T16:14:14;12.50;99.90
36594;DHT22;22603;47.900;8.146;2023-03-23T16:17:01;12.50;99.90
36594;DHT22;22603;47.900;8.146;2023-03-23T16:19:48;12.60;99.90
36594;DHT22;22603;47.900;8.146;2023-03-23T16:22:35;12.60;99.90
36594;DHT22;22603;47.900;8.146;2023-03-23T16:25:24;12.70;99.90
36594;DHT22;22603;47.900;8.146;2023-03-23T16:28:12;12.70;99.90
36594;DHT22;22603;47.900;8.146;2023-03-23T16:31:00;12.60;99.90
36594;DHT22;22603;47.900;8.146;2023-03-23T16:33:46;12.50;99.90
36594;DHT22;22603;47.900;8.146;2023-03-23T16:36:34;12.50;99.90
36594;DHT22;22603;47.900;8.146;2023-03-23T16:39:21;12.50;99.90
36594;DHT22;22603;47.900;8.146;2023-03-23T16:42:10;12.40;99.90
36594;DHT22;22603;47.900;8.146;2023-03-23T16:44:57;12.30;99.90
36594;DHT22;22603;47.900;8.146;2023-03-23T16:47:44;12.20;99.90
36594;DHT22;22603;47.900;8.146;2023-03-23T16:50:34;12.20;99.90
36594;DHT22;22603;47.900;8.146;2023-03-23T16:53:21;12.10;99.90
36594;DHT22;22603;47.900;8.146;2023-03-23T16:56:09;12.00;99.90
36594;DHT22;22603;47.900;8.146;2023-03-23T16:58:59;11.90;99.90
36594;DHT22;22603;47.900;8.146;2023-03-23T17:01:47;11.90;99.90
36594;DHT22;22603;47.900;8.146;2023-03-23T17:04:34;11.90;99.90
36594;DHT22;22603;47.900;8.146;2023-03-23T17:07:21;11.90;99.90
36594;DHT22;22603;47.900;8.146;2023-03-23T17:10:10;11.90;99.90
36594;DHT22;22603;47.900;8.146;2023-03-23T17:12:57;11.80;99.90
36594;DHT22;22603;47.900;8.146;2023-03-23T17:15:46;11.80;99.90
36594;DHT22;22603;47.900;8.146;2023-03-23T17:18:34;11.70;99.90
36594;DHT22;22603;47.900;8.146;2023-03-23T17:21:21;11.60;99.90
36594;DHT22;22603;47.900;8.146;2023-03-23T17:24:10;11.50;99.90
36594;DHT22;22603;47.900;8.146;2023-03-23T17:26:57;11.40;99.90
36594;DHT22;22603;47.900;8.146;2023-03-23T17:29:44;11.40;99.90
36594;DHT22;22603;47.900;8.146;2023-03-23T17:32:33;11.30;99.90
36594;DHT22;22603;47.900;8.146;2023-03-23T17:35:21;11.30;99.90
36594;DHT22;22603;47.900;8.146;2023-03-23T17:38:08;11.10;99.90
36594;DHT22;22603;47.900;8.146;2023-03-23T17:40:56;11.20;99.90
36594;DHT22;22603;47.900;8.146;2023-03-23T17:43:43;11.10;99.90
36594;DHT22;22603;47.900;8.146;2023-03-23T17:46:30;11.10;99.90
36594;DHT22;22603;47.900;8.146;2023-03-23T17:49:19;11.10;99.90
36594;DHT22;22603;47.900;8.146;2023-03-23T17:52:06;11.00;99.90
36594;DHT22;22603;47.900;8.146;2023-03-23T17:54:53;11.10;99.90
36594;DHT22;22603;47.900;8.146;2023-03-23T17:57:40;11.10;99.90